createdAt,value
2017-09-22T00:00:04.322Z,7.90
2017-09-22T00:02:31.873Z,7.90
2017-09-22T00:04:59.409Z,7.90
2017-09-22T00:07:27.713Z,7.80
2017-09-22T00:09:55.252Z,7.70
2017-09-22T00:12:23.567Z,7.80
2017-09-22T00:14:51.108Z,7.80
2017-09-22T00:17:18.640Z,7.80
2017-09-22T00:19:46.963Z,7.90
2017-09-22T00:22:14.524Z,7.80
2017-09-22T00:24:42.052Z,7.80
2017-09-22T00:27:09.581Z,7.70
2017-09-22T00:29:37.129Z,7.70
2017-09-22T00:32:04.669Z,7.70
2017-09-22T00:34:32.213Z,7.60
2017-09-22T00:36:59.753Z,7.60
2017-09-22T00:39:27.309Z,7.60
2017-09-22T00:41:54.853Z,7.70
2017-09-22T00:44:22.397Z,7.70
2017-09-22T00:46:49.941Z,7.60
2017-09-22T00:49:17.481Z,7.60
2017-09-22T00:51:45.046Z,7.50
2017-09-22T00:54:12.580Z,7.50
2017-09-22T00:56:40.894Z,7.50
2017-09-22T00:59:08.454Z,7.50
2017-09-22T01:01:35.990Z,7.50
2017-09-22T01:04:04.320Z,7.50
2017-09-22T01:06:31.847Z,7.40
2017-09-22T01:08:59.398Z,7.40
2017-09-22T01:11:26.926Z,7.40
2017-09-22T01:13:55.242Z,7.30
2017-09-22T01:16:22.818Z,7.30
2017-09-22T01:18:50.372Z,7.30
2017-09-22T01:21:17.939Z,7.30
2017-09-22T01:23:45.501Z,7.30
2017-09-22T01:26:13.037Z,7.20
2017-09-22T01:28:40.565Z,7.30
2017-09-22T01:31:08.130Z,7.30
2017-09-22T01:33:35.661Z,7.30
2017-09-22T01:36:03.214Z,7.20
2017-09-22T01:38:30.748Z,7.20
2017-09-22T01:40:59.031Z,7.10
2017-09-22T01:43:26.581Z,7.20
2017-09-22T01:45:54.125Z,7.20
2017-09-22T01:48:22.441Z,7.10
2017-09-22T01:50:49.982Z,7.10
2017-09-22T01:53:17.549Z,7.20
2017-09-22T01:55:45.095Z,7.20
2017-09-22T01:58:12.649Z,7.20
2017-09-22T02:00:40.193Z,7.20
2017-09-22T02:03:08.490Z,7.00
2017-09-22T02:05:36.049Z,7.00
2017-09-22T02:08:03.581Z,7.00
2017-09-22T02:10:31.900Z,7.00
2017-09-22T02:12:59.432Z,7.00
2017-09-22T02:15:26.990Z,7.00
2017-09-22T02:17:55.290Z,6.90
2017-09-22T02:20:22.817Z,6.90
2017-09-22T02:22:51.137Z,6.90
2017-09-22T02:25:18.677Z,6.90
2017-09-22T02:27:46.217Z,6.90
2017-09-22T02:30:14.609Z,6.90
2017-09-22T02:32:42.161Z,6.90
2017-09-22T02:35:09.701Z,6.90
2017-09-22T02:37:37.242Z,6.90
2017-09-22T02:40:04.789Z,6.80
2017-09-22T02:42:32.334Z,6.80
2017-09-22T02:44:59.877Z,6.80
2017-09-22T02:47:27.400Z,6.80
2017-09-22T02:49:55.723Z,6.80
2017-09-22T02:52:23.266Z,6.80
2017-09-22T02:54:50.823Z,6.80
2017-09-22T02:57:18.381Z,6.70
2017-09-22T02:59:45.909Z,6.70
2017-09-22T03:02:14.229Z,6.70
2017-09-22T03:04:41.761Z,6.70
2017-09-22T03:07:09.309Z,6.70
2017-09-22T03:09:37.597Z,6.70
2017-09-22T03:12:05.148Z,6.70
2017-09-22T03:14:32.705Z,6.70
2017-09-22T03:17:00.240Z,6.60
2017-09-22T03:19:27.797Z,6.60
2017-09-22T03:21:55.331Z,6.60
2017-09-22T03:24:22.884Z,6.60
2017-09-22T03:26:50.419Z,6.60
2017-09-22T03:29:17.945Z,6.60
2017-09-22T03:31:45.502Z,6.60
2017-09-22T03:34:13.034Z,6.60
2017-09-22T03:36:40.581Z,6.50
2017-09-22T03:39:08.116Z,6.50
2017-09-22T03:41:35.671Z,6.50
2017-09-22T03:44:03.230Z,6.50
2017-09-22T03:46:30.777Z,6.50
2017-09-22T03:48:58.305Z,6.40
2017-09-22T03:51:26.603Z,6.40
2017-09-22T03:53:54.157Z,6.30
2017-09-22T03:56:21.685Z,6.40
2017-09-22T03:58:50.006Z,6.40
2017-09-22T04:01:17.544Z,6.40
2017-09-22T04:03:45.101Z,6.40
2017-09-22T04:06:12.643Z,6.50
2017-09-22T04:08:40.987Z,6.40
2017-09-22T04:11:08.536Z,6.40
2017-09-22T04:13:36.057Z,6.40
2017-09-22T04:16:03.609Z,6.30
2017-09-22T04:18:31.897Z,6.40
2017-09-22T04:20:59.456Z,6.30
2017-09-22T04:23:26.993Z,6.40
2017-09-22T04:25:55.315Z,6.30
2017-09-22T04:28:22.877Z,6.30
2017-09-22T04:30:50.416Z,6.30
2017-09-22T04:33:17.972Z,6.30
2017-09-22T04:35:46.273Z,6.20
2017-09-22T04:38:13.806Z,6.30
2017-09-22T04:40:41.393Z,6.30
2017-09-22T04:43:08.925Z,6.30
2017-09-22T04:45:36.471Z,6.30
2017-09-22T04:48:05.305Z,6.30
2017-09-22T04:50:32.854Z,6.20
2017-09-22T04:53:00.379Z,6.20
2017-09-22T04:55:28.701Z,6.10
2017-09-22T04:57:57.242Z,6.10
2017-09-22T05:00:25.537Z,6.20
2017-09-22T05:02:53.089Z,6.20
2017-09-22T05:05:21.402Z,6.20
2017-09-22T05:07:48.946Z,6.10
2017-09-22T05:10:16.479Z,6.20
2017-09-22T05:12:44.797Z,6.20
2017-09-22T05:15:12.326Z,6.20
2017-09-22T05:17:40.649Z,6.20
2017-09-22T05:20:08.173Z,6.20
2017-09-22T05:22:35.723Z,6.20
2017-09-22T05:25:03.252Z,6.20
2017-09-22T05:27:30.781Z,6.20
2017-09-22T05:29:58.337Z,6.20
2017-09-22T05:32:25.878Z,6.40
2017-09-22T05:34:53.410Z,6.40
2017-09-22T05:37:21.727Z,6.30
2017-09-22T05:39:49.288Z,6.30
2017-09-22T05:42:16.822Z,6.30
2017-09-22T05:44:44.351Z,6.40
2017-09-22T05:47:11.910Z,6.50
2017-09-22T05:49:39.443Z,6.50
2017-09-22T05:52:06.989Z,6.60
2017-09-22T05:54:34.509Z,6.60
2017-09-22T05:57:02.841Z,6.80
2017-09-22T05:59:30.369Z,6.80
2017-09-22T06:01:57.914Z,6.90
2017-09-22T06:04:25.442Z,7.00
2017-09-22T06:06:53.757Z,7.30
2017-09-22T06:09:21.318Z,7.30
2017-09-22T06:11:48.873Z,7.60
2017-09-22T06:14:16.455Z,7.90
2017-09-22T06:16:43.987Z,8.10
2017-09-22T06:19:11.534Z,8.30
2017-09-22T06:21:39.829Z,8.60
2017-09-22T06:24:10.617Z,8.60
2017-09-22T06:26:39.067Z,8.70
2017-09-22T06:29:06.641Z,8.70
2017-09-22T06:31:34.184Z,8.80
2017-09-22T06:34:01.853Z,8.90
2017-09-22T06:36:29.384Z,9.20
2017-09-22T06:38:57.239Z,9.20
2017-09-22T06:41:25.560Z,9.60
2017-09-22T06:43:53.094Z,9.60
2017-09-22T06:46:20.640Z,9.70
2017-09-22T06:48:48.933Z,9.80
2017-09-22T06:51:16.510Z,9.70
2017-09-22T06:53:44.041Z,9.80
2017-09-22T06:56:12.372Z,9.80
2017-09-22T06:58:39.922Z,9.70
2017-09-22T07:01:07.449Z,9.70
2017-09-22T07:03:35.023Z,9.80
2017-09-22T07:06:02.552Z,9.90
2017-09-22T07:08:30.870Z,10.20
2017-09-22T07:10:58.417Z,10.20
2017-09-22T07:13:26.943Z,10.30
2017-09-22T07:15:54.513Z,10.20
2017-09-22T07:18:23.250Z,10.50
2017-09-22T07:20:50.825Z,10.40
2017-09-22T07:23:18.366Z,10.70
2017-09-22T07:25:45.930Z,11.00
2017-09-22T07:28:13.473Z,11.30
2017-09-22T07:30:41.008Z,11.40
2017-09-22T07:33:09.322Z,11.20
2017-09-22T07:35:36.869Z,11.10
2017-09-22T07:38:04.424Z,11.30
2017-09-22T07:40:31.974Z,11.40
2017-09-22T07:42:59.526Z,11.60
2017-09-22T07:45:27.841Z,12.20
2017-09-22T07:47:55.409Z,12.20
2017-09-22T07:50:22.936Z,12.40
2017-09-22T07:52:50.496Z,12.40
2017-09-22T07:55:18.138Z,12.70
2017-09-22T07:57:46.491Z,14.60
2017-09-22T08:00:14.033Z,14.60
2017-09-22T08:02:41.597Z,16.30
2017-09-22T08:05:09.165Z,18.00
2017-09-22T08:07:36.710Z,18.80
2017-09-22T08:10:04.250Z,20.70
2017-09-22T08:12:31.781Z,20.20
2017-09-22T08:15:00.112Z,22.20
2017-09-22T08:17:27.656Z,22.10
2017-09-22T08:19:55.204Z,22.80
2017-09-22T08:22:22.740Z,22.10
2017-09-22T08:24:51.040Z,22.60
2017-09-22T08:27:18.579Z,22.50
2017-09-22T08:29:46.896Z,20.00
2017-09-22T08:32:14.461Z,20.00
2017-09-22T08:34:41.996Z,19.40
2017-09-22T08:37:09.541Z,18.70
2017-09-22T08:39:37.838Z,19.40
2017-09-22T08:42:05.381Z,19.40
2017-09-22T08:44:32.930Z,21.00
2017-09-22T08:47:01.230Z,23.50
2017-09-22T08:49:28.783Z,23.50
2017-09-22T08:51:56.333Z,22.90
2017-09-22T08:54:24.622Z,23.20
2017-09-22T08:56:52.169Z,23.20
2017-09-22T08:59:20.473Z,24.30
2017-09-22T09:01:48.045Z,24.30
2017-09-22T09:04:15.570Z,25.10
2017-09-22T09:06:43.120Z,24.40
2017-09-22T09:09:11.410Z,24.40
2017-09-22T09:11:38.962Z,24.30
2017-09-22T09:14:06.553Z,26.00
2017-09-22T09:16:34.089Z,26.90
2017-09-22T09:19:01.653Z,26.90
2017-09-22T09:21:29.206Z,26.20
2017-09-22T09:23:56.765Z,25.00
2017-09-22T09:26:24.317Z,25.20
2017-09-22T09:28:51.877Z,24.90
2017-09-22T09:31:19.438Z,26.60
2017-09-22T09:33:46.968Z,27.50
2017-09-22T09:36:14.527Z,27.80
2017-09-22T09:38:42.122Z,26.70
2017-09-22T09:41:09.637Z,26.20
2017-09-22T09:43:37.186Z,25.80
2017-09-22T09:46:05.505Z,26.60
2017-09-22T09:48:33.044Z,26.60
2017-09-22T09:51:00.584Z,26.80
2017-09-22T09:53:28.132Z,28.60
2017-09-22T09:55:55.694Z,30.10
2017-09-22T09:58:23.988Z,30.10
2017-09-22T10:00:51.586Z,30.10
2017-09-22T10:03:19.120Z,29.00
2017-09-22T10:05:46.653Z,28.10
2017-09-22T10:08:14.198Z,29.80
2017-09-22T10:10:41.758Z,29.80
2017-09-22T10:13:09.280Z,29.10
2017-09-22T10:15:36.843Z,28.80
2017-09-22T10:18:04.373Z,28.50
2017-09-22T10:20:32.662Z,31.20
2017-09-22T10:23:00.992Z,31.40
2017-09-22T10:25:28.532Z,31.30
2017-09-22T10:27:56.081Z,30.90
2017-09-22T10:30:23.625Z,30.80
2017-09-22T10:32:51.158Z,29.10
2017-09-22T10:35:18.698Z,27.60
2017-09-22T10:37:46.241Z,28.10
2017-09-22T10:40:13.802Z,28.70
2017-09-22T10:42:41.337Z,29.10
2017-09-22T10:45:08.876Z,28.80
2017-09-22T10:47:37.177Z,27.70
2017-09-22T10:50:04.716Z,27.70
2017-09-22T10:52:32.260Z,27.40
2017-09-22T10:54:59.793Z,27.40
2017-09-22T10:57:27.353Z,26.20
2017-09-22T10:59:54.897Z,26.20
2017-09-22T11:02:22.461Z,26.70
2017-09-22T11:04:50.010Z,26.40
2017-09-22T11:07:18.334Z,26.60
2017-09-22T11:09:45.869Z,26.60
2017-09-22T11:12:13.417Z,25.40
2017-09-22T11:14:41.211Z,24.90
2017-09-22T11:17:08.755Z,24.60
2017-09-22T11:19:37.056Z,24.70
2017-09-22T11:22:04.617Z,24.70
2017-09-22T11:24:32.143Z,24.90
2017-09-22T11:27:00.482Z,23.80
2017-09-22T11:29:28.013Z,23.80
2017-09-22T11:31:55.103Z,24.10
2017-09-22T11:34:22.656Z,23.90
2017-09-22T11:36:50.205Z,24.30
2017-09-22T11:39:17.771Z,24.40
2017-09-22T11:41:45.305Z,24.10
2017-09-22T11:44:12.852Z,24.00
2017-09-22T11:46:40.381Z,23.50
2017-09-22T11:49:07.904Z,23.10
2017-09-22T11:51:35.454Z,22.90
2017-09-22T11:54:02.976Z,22.60
2017-09-22T11:56:31.304Z,23.10
2017-09-22T11:58:58.836Z,23.00
2017-09-22T12:01:26.409Z,23.80
2017-09-22T12:03:53.954Z,24.10
2017-09-22T12:06:23.013Z,23.80
2017-09-22T12:08:50.576Z,23.80
2017-09-22T12:11:18.122Z,23.90
2017-09-22T12:13:45.665Z,24.30
2017-09-22T12:16:13.197Z,23.80
2017-09-22T12:18:40.745Z,23.80
2017-09-22T12:21:08.317Z,23.70
2017-09-22T12:23:35.852Z,23.10
2017-09-22T12:26:03.414Z,23.30
2017-09-22T12:28:30.951Z,23.80
2017-09-22T12:30:58.512Z,23.60
2017-09-22T12:33:26.054Z,23.10
2017-09-22T12:35:53.589Z,22.80
2017-09-22T12:38:21.910Z,23.60
2017-09-22T12:40:49.446Z,23.60
2017-09-22T12:43:17.041Z,23.60
2017-09-22T12:45:44.572Z,24.10
2017-09-22T12:48:12.115Z,24.10
2017-09-22T12:50:39.689Z,23.90
2017-09-22T12:53:07.217Z,23.80
2017-09-22T12:55:34.761Z,24.10
2017-09-22T12:58:02.333Z,24.00
2017-09-22T13:00:29.879Z,24.20
2017-09-22T13:02:57.410Z,23.60
2017-09-22T13:05:25.751Z,23.90
2017-09-22T13:07:53.335Z,23.90
2017-09-22T13:10:20.952Z,24.20
2017-09-22T13:12:48.533Z,24.50
2017-09-22T13:15:16.079Z,24.50
2017-09-22T13:17:43.629Z,24.10
2017-09-22T13:20:11.178Z,24.10
2017-09-22T13:22:38.701Z,24.10
2017-09-22T13:25:07.050Z,23.70
2017-09-22T13:27:34.581Z,23.60
2017-09-22T13:30:02.149Z,23.50
2017-09-22T13:32:29.688Z,23.70
2017-09-22T13:34:57.265Z,23.70
2017-09-22T13:37:24.822Z,23.70
2017-09-22T13:39:52.350Z,23.60
2017-09-22T13:42:20.662Z,23.30
2017-09-22T13:44:48.188Z,23.30
2017-09-22T13:47:15.743Z,23.00
2017-09-22T13:49:43.307Z,23.20
2017-09-22T13:52:10.860Z,23.50
2017-09-22T13:54:38.385Z,23.70
2017-09-22T13:57:05.950Z,24.00
2017-09-22T13:59:33.480Z,23.80
2017-09-22T14:02:01.795Z,23.80
2017-09-22T14:04:29.334Z,23.80
2017-09-22T14:06:56.876Z,23.60
2017-09-22T14:09:25.185Z,23.60
2017-09-22T14:11:52.727Z,23.50
2017-09-22T14:14:20.255Z,23.10
2017-09-22T14:16:47.824Z,23.00
2017-09-22T14:19:15.345Z,23.30
2017-09-22T14:21:42.917Z,23.30
2017-09-22T14:24:10.447Z,23.70
2017-09-22T14:26:38.982Z,23.50
2017-09-22T14:29:07.304Z,23.20
2017-09-22T14:31:34.851Z,23.20
2017-09-22T14:34:02.397Z,23.30
2017-09-22T14:36:30.698Z,22.60
2017-09-22T14:38:58.244Z,22.60
2017-09-22T14:41:25.768Z,22.60
2017-09-22T14:43:54.080Z,22.60
2017-09-22T14:46:21.615Z,22.60
2017-09-22T14:48:49.938Z,22.70
2017-09-22T14:51:17.465Z,22.70
2017-09-22T14:53:45.789Z,22.40
2017-09-22T14:56:13.315Z,22.30
2017-09-22T14:58:40.869Z,22.10
2017-09-22T15:01:09.166Z,22.50
2017-09-22T15:03:36.690Z,22.50
2017-09-22T15:06:05.114Z,22.30
2017-09-22T15:08:32.637Z,22.20
2017-09-22T15:11:00.197Z,22.10
2017-09-22T15:13:27.721Z,22.00
2017-09-22T15:15:56.027Z,22.20
2017-09-22T15:18:23.591Z,22.10
2017-09-22T15:20:51.145Z,21.90
2017-09-22T15:23:18.679Z,21.60
2017-09-22T15:25:47.010Z,21.20
2017-09-22T15:28:14.555Z,21.20
2017-09-22T15:30:42.124Z,21.10
2017-09-22T15:33:09.648Z,21.20
2017-09-22T15:35:37.956Z,20.90
2017-09-22T15:38:05.500Z,20.80
2017-09-22T15:40:33.046Z,20.70
2017-09-22T15:43:00.566Z,20.50
2017-09-22T15:45:28.128Z,20.30
2017-09-22T15:47:55.673Z,20.20
2017-09-22T15:50:23.997Z,19.90
2017-09-22T15:52:51.565Z,19.90
2017-09-22T15:55:19.118Z,19.70
2017-09-22T15:57:46.692Z,19.50
2017-09-22T16:00:14.223Z,19.40
2017-09-22T16:02:41.794Z,19.30
2017-09-22T16:05:09.326Z,19.30
2017-09-22T16:07:36.881Z,19.40
2017-09-22T16:10:04.417Z,19.20
2017-09-22T16:12:32.739Z,19.20
2017-09-22T16:15:00.273Z,19.20
2017-09-22T16:17:28.589Z,19.00
2017-09-22T16:19:56.156Z,19.00
2017-09-22T16:22:23.683Z,19.00
2017-09-22T16:24:51.228Z,18.90
2017-09-22T16:27:19.534Z,18.70
2017-09-22T16:29:47.094Z,18.60
2017-09-22T16:32:14.629Z,18.50
2017-09-22T16:34:42.189Z,18.40
2017-09-22T16:37:09.741Z,18.20
2017-09-22T16:39:37.281Z,17.90
2017-09-22T16:42:05.631Z,17.60
2017-09-22T16:44:33.170Z,17.60
2017-09-22T16:47:00.750Z,17.40
2017-09-22T16:49:28.286Z,17.40
2017-09-22T16:51:55.841Z,17.20
2017-09-22T16:54:23.384Z,17.10
2017-09-22T16:56:51.705Z,16.80
2017-09-22T16:59:19.237Z,16.80
2017-09-22T17:01:46.825Z,16.80
2017-09-22T17:04:14.380Z,16.60
2017-09-22T17:06:41.918Z,16.50
2017-09-22T17:09:09.476Z,16.40
2017-09-22T17:11:37.015Z,16.20
2017-09-22T17:14:04.587Z,16.20
2017-09-22T17:16:32.150Z,16.10
2017-09-22T17:18:59.717Z,16.00
2017-09-22T17:21:27.262Z,15.90
2017-09-22T17:23:55.581Z,15.80
2017-09-22T17:26:23.117Z,15.80
2017-09-22T17:28:50.697Z,15.70
2017-09-22T17:31:18.260Z,15.70
2017-09-22T17:33:45.801Z,15.60
2017-09-22T17:36:13.356Z,15.50
2017-09-22T17:38:40.924Z,15.50
2017-09-22T17:41:08.481Z,15.40
2017-09-22T17:43:36.014Z,15.40
2017-09-22T17:46:04.216Z,15.40
2017-09-22T17:48:31.879Z,15.30
2017-09-22T17:50:59.427Z,15.20
2017-09-22T17:53:26.960Z,15.20
2017-09-22T17:55:55.288Z,15.00
2017-09-22T17:58:22.834Z,15.00
2017-09-22T18:00:50.375Z,15.00
2017-09-22T18:03:17.925Z,15.00
2017-09-22T18:05:45.461Z,15.00
2017-09-22T18:08:13.009Z,14.90
2017-09-22T18:10:40.554Z,14.90
2017-09-22T18:13:08.115Z,14.80
2017-09-22T18:15:35.654Z,14.80
2017-09-22T18:18:03.202Z,14.70
2017-09-22T18:20:30.749Z,14.70
2017-09-22T18:22:58.284Z,14.70
2017-09-22T18:25:25.877Z,14.70
2017-09-22T18:27:53.428Z,14.60
2017-09-22T18:30:20.966Z,14.60
2017-09-22T18:32:49.271Z,14.50
2017-09-22T18:35:16.851Z,14.50
2017-09-22T18:37:44.417Z,14.50
2017-09-22T18:40:11.977Z,14.40
2017-09-22T18:42:39.506Z,14.30
2017-09-22T18:45:07.081Z,14.30
2017-09-22T18:47:34.638Z,14.20
2017-09-22T18:50:02.170Z,14.10
2017-09-22T18:52:30.508Z,14.00
2017-09-22T18:54:58.047Z,14.00
2017-09-22T18:57:25.605Z,13.90
2017-09-22T18:59:53.159Z,13.90
2017-09-22T19:02:20.695Z,13.80
2017-09-22T19:04:48.254Z,13.80
2017-09-22T19:07:16.663Z,13.70
2017-09-22T19:09:44.224Z,13.60
2017-09-22T19:12:11.762Z,13.60
2017-09-22T19:14:39.286Z,13.60
2017-09-22T19:17:06.850Z,13.50
2017-09-22T19:19:35.180Z,13.50
2017-09-22T19:22:02.726Z,13.50
2017-09-22T19:24:30.288Z,13.30
2017-09-22T19:26:57.828Z,13.30
2017-09-22T19:29:25.408Z,13.30
2017-09-22T19:31:52.944Z,13.20
2017-09-22T19:34:21.316Z,13.20
2017-09-22T19:36:49.643Z,13.20
2017-09-22T19:39:17.213Z,13.10
2017-09-22T19:41:44.774Z,13.10
2017-09-22T19:44:12.329Z,13.00
2017-09-22T19:46:39.877Z,13.00
2017-09-22T19:49:07.412Z,13.00
2017-09-22T19:51:34.997Z,12.90
2017-09-22T19:54:02.534Z,12.90
2017-09-22T19:56:30.089Z,12.90
2017-09-22T19:58:57.626Z,12.90
2017-09-22T20:01:25.969Z,12.90
2017-09-22T20:03:53.506Z,12.90
2017-09-22T20:06:21.053Z,12.90
2017-09-22T20:08:48.625Z,12.90
2017-09-22T20:11:16.166Z,12.90
2017-09-22T20:13:43.737Z,12.90
2017-09-22T20:16:11.270Z,12.90
2017-09-22T20:18:39.593Z,12.90
2017-09-22T20:21:07.148Z,12.90
2017-09-22T20:23:34.732Z,12.90
2017-09-22T20:26:02.317Z,12.90
2017-09-22T20:28:30.626Z,12.80
2017-09-22T20:30:58.326Z,12.80
2017-09-22T20:33:25.882Z,12.80
2017-09-22T20:35:53.530Z,12.80
2017-09-22T20:38:21.062Z,12.80
2017-09-22T20:40:48.596Z,12.80
2017-09-22T20:43:16.924Z,12.60
2017-09-22T20:45:44.469Z,12.60
2017-09-22T20:48:12.033Z,12.60
2017-09-22T20:50:39.581Z,12.50
2017-09-22T20:53:07.117Z,12.50
2017-09-22T20:55:35.434Z,12.40
2017-09-22T20:58:02.985Z,12.40
2017-09-22T21:00:30.549Z,12.40
2017-09-22T21:02:58.081Z,12.30
2017-09-22T21:05:26.418Z,12.10
2017-09-22T21:07:53.960Z,12.10
2017-09-22T21:10:21.524Z,12.10
2017-09-22T21:12:49.182Z,12.10
2017-09-22T21:15:16.749Z,12.10
2017-09-22T21:17:44.361Z,12.10
2017-09-22T21:20:12.670Z,11.90
2017-09-22T21:22:40.228Z,11.90
2017-09-22T21:25:07.793Z,11.90
2017-09-22T21:27:35.353Z,11.90
2017-09-22T21:30:02.914Z,12.00
2017-09-22T21:32:32.237Z,11.90
2017-09-22T21:34:59.798Z,11.90
2017-09-22T21:37:27.345Z,11.80
2017-09-22T21:39:54.942Z,11.70
2017-09-22T21:42:23.266Z,11.70
2017-09-22T21:44:50.819Z,11.60
2017-09-22T21:47:18.361Z,11.60
2017-09-22T21:49:46.662Z,11.50
2017-09-22T21:52:14.241Z,11.50
2017-09-22T21:54:42.104Z,11.50
2017-09-22T21:57:09.764Z,11.40
2017-09-22T21:59:37.389Z,11.40
2017-09-22T22:02:05.805Z,11.50
2017-09-22T22:04:38.955Z,11.50
2017-09-22T22:07:13.153Z,11.50
2017-09-22T22:09:40.748Z,11.40
2017-09-22T22:12:08.354Z,11.40
2017-09-22T22:14:35.932Z,11.50
2017-09-22T22:17:03.541Z,11.50
2017-09-22T22:19:31.222Z,11.40
2017-09-22T22:21:58.816Z,11.40
2017-09-22T22:24:26.406Z,11.40
2017-09-22T22:26:54.737Z,11.40
2017-09-22T22:29:22.345Z,11.40
2017-09-22T22:31:50.713Z,11.40
2017-09-22T22:34:19.090Z,11.40
2017-09-22T22:50:09.784Z,11.10
2017-09-22T22:52:38.125Z,11.10
2017-09-22T22:55:05.712Z,11.00
2017-09-22T22:57:33.302Z,11.00
2017-09-22T23:00:00.896Z,11.00
2017-09-22T23:02:28.493Z,10.90
2017-09-22T23:04:56.083Z,10.90
2017-09-22T23:07:23.700Z,10.80
2017-09-22T23:09:51.285Z,10.80
2017-09-22T23:12:19.669Z,10.80
2017-09-22T23:14:48.034Z,10.70
2017-09-22T23:17:15.650Z,10.60
2017-09-22T23:19:43.336Z,10.60
2017-09-22T23:22:10.949Z,10.50
2017-09-22T23:24:38.552Z,10.50
2017-09-22T23:27:06.149Z,10.50
2017-09-22T23:29:34.532Z,10.50
2017-09-22T23:32:02.912Z,10.50
2017-09-22T23:34:31.295Z,10.40
2017-09-22T23:36:59.707Z,10.30
2017-09-22T23:39:27.281Z,10.30
2017-09-22T23:41:54.887Z,10.30
2017-09-22T23:44:23.241Z,10.20
2017-09-22T23:46:50.845Z,10.20
2017-09-22T23:49:18.427Z,10.20
2017-09-22T23:51:46.035Z,10.20
2017-09-22T23:54:13.625Z,10.20
2017-09-22T23:56:41.235Z,10.10
2017-09-22T23:59:08.825Z,10.10
